sensor_id;sensor_type;location;lat;lon;timestamp;temperature;humidity
52867;DHT22;38739;53.324;6.862;2024-03-08T00:02:04;2.50;99.90
52867;DHT22;38739;53.324;6.862;2024-03-08T00:04:29;2.50;99.90
52867;DHT22;38739;53.324;6.862;2024-03-08T00:06:55;2.50;99.90
52867;DHT22;38739;53.324;6.862;2024-03-08T00:09:21;2.60;99.90
52867;DHT22;38739;53.324;6.862;2024-03-08T00:11:47;2.60;99.90
52867;DHT22;38739;53.324;6.862;2024-03-08T00:14:16;2.60;99.90
52867;DHT22;38739;53.324;6.862;2024-03-08T00:16:42;2.70;99.90
52867;DHT22;38739;53.324;6.862;2024-03-08T00:19:09;2.70;99.90
52867;DHT22;38739;53.324;6.862;2024-03-08T00:21:35;2.70;99.90
52867;DHT22;38739;53.324;6.862;2024-03-08T00:24:01;2.80;99.90
52867;DHT22;38739;53.324;6.862;2024-03-08T00:26:27;2.80;99.90
52867;DHT22;38739;53.324;6.862;2024-03-08T00:28:54;2.80;99.90
52867;DHT22;38739;53.324;6.862;2024-03-08T00:31:20;2.90;99.90
52867;DHT22;38739;53.324;6.862;2024-03-08T00:33:45;2.90;99.90
52867;DHT22;38739;53.324;6.862;2024-03-08T00:36:11;2.90;99.90
52867;DHT22;38739;53.324;6.862;2024-03-08T00:38:37;2.90;99.90
52867;DHT22;38739;53.324;6.862;2024-03-08T00:41:03;2.90;99.90
52867;DHT22;38739;53.324;6.862;2024-03-08T00:43:29;2.80;99.90
52867;DHT22;38739;53.324;6.862;2024-03-08T00:46:00;2.80;99.90
52867;DHT22;38739;53.324;6.862;2024-03-08T00:48:26;2.80;99.90
52867;DHT22;38739;53.324;6.862;2024-03-08T00:50:53;2.80;99.90
52867;DHT22;38739;53.324;6.862;2024-03-08T00:53:19;2.70;99.90
52867;DHT22;38739;53.324;6.862;2024-03-08T00:55:44;2.70;99.90
52867;DHT22;38739;53.324;6.862;2024-03-08T00:58:12;2.70;99.90
52867;DHT22;38739;53.324;6.862;2024-03-08T01:00:38;2.70;99.90
52867;DHT22;38739;53.324;6.862;2024-03-08T01:03:06;2.70;99.90
52867;DHT22;38739;53.324;6.862;2024-03-08T01:05:33;2.60;99.90
52867;DHT22;38739;53.324;6.862;2024-03-08T01:07:59;2.60;99.90
52867;DHT22;38739;53.324;6.862;2024-03-08T01:10:24;2.60;99.90
52867;DHT22;38739;53.324;6.862;2024-03-08T01:12:50;2.60;99.90
52867;DHT22;38739;53.324;6.862;2024-03-08T01:15:16;2.60;99.90
52867;DHT22;38739;53.324;6.862;2024-03-08T01:17:42;2.50;99.90
52867;DHT22;38739;53.324;6.862;2024-03-08T01:20:09;2.50;99.90
52867;DHT22;38739;53.324;6.862;2024-03-08T01:22:38;2.50;99.90
52867;DHT22;38739;53.324;6.862;2024-03-08T01:25:04;2.50;99.90
52867;DHT22;38739;53.324;6.862;2024-03-08T01:27:30;2.50;99.90
52867;DHT22;38739;53.324;6.862;2024-03-08T01:29:56;2.50;99.90
52867;DHT22;38739;53.324;6.862;2024-03-08T01:32:24;2.50;99.90
52867;DHT22;38739;53.324;6.862;2024-03-08T01:34:50;2.50;99.90
52867;DHT22;38739;53.324;6.862;2024-03-08T01:37:16;2.50;99.90
52867;DHT22;38739;53.324;6.862;2024-03-08T01:39:42;2.50;99.90
52867;DHT22;38739;53.324;6.862;2024-03-08T01:42:07;2.50;99.90
52867;DHT22;38739;53.324;6.862;2024-03-08T01:44:34;2.40;99.90
52867;DHT22;38739;53.324;6.862;2024-03-08T01:47:00;2.40;99.90
52867;DHT22;38739;53.324;6.862;2024-03-08T01:49:26;2.40;99.90
52867;DHT22;38739;53.324;6.862;2024-03-08T01:51:54;2.40;99.90
52867;DHT22;38739;53.324;6.862;2024-03-08T01:54:22;2.30;99.90
52867;DHT22;38739;53.324;6.862;2024-03-08T01:56:49;2.30;99.90
52867;DHT22;38739;53.324;6.862;2024-03-08T01:59:15;2.30;99.90
52867;DHT22;38739;53.324;6.862;2024-03-08T02:01:42;2.20;99.90
52867;DHT22;38739;53.324;6.862;2024-03-08T02:04:09;2.20;99.90
52867;DHT22;38739;53.324;6.862;2024-03-08T02:06:34;2.20;99.90
52867;DHT22;38739;53.324;6.862;2024-03-08T02:09:00;2.20;99.90
52867;DHT22;38739;53.324;6.862;2024-03-08T02:11:31;2.20;99.90
52867;DHT22;38739;53.324;6.862;2024-03-08T02:13:58;2.20;99.90
52867;DHT22;38739;53.324;6.862;2024-03-08T02:16:23;2.20;99.90
52867;DHT22;38739;53.324;6.862;2024-03-08T02:18:49;2.20;99.90
52867;DHT22;38739;53.324;6.862;2024-03-08T02:21:17;2.10;99.90
52867;DHT22;38739;53.324;6.862;2024-03-08T02:23:46;2.10;99.90
52867;DHT22;38739;53.324;6.862;2024-03-08T02:26:12;2.10;99.90
52867;DHT22;38739;53.324;6.862;2024-03-08T02:28:38;2.10;99.90
52867;DHT22;38739;53.324;6.862;2024-03-08T02:31:05;2.10;99.90
52867;DHT22;38739;53.324;6.862;2024-03-08T02:33:33;2.10;99.90
52867;DHT22;38739;53.324;6.862;2024-03-08T02:36:00;2.10;99.90
52867;DHT22;38739;53.324;6.862;2024-03-08T02:38:26;2.10;99.90
52867;DHT22;38739;53.324;6.862;2024-03-08T02:40:52;2.10;99.90
52867;DHT22;38739;53.324;6.862;2024-03-08T02:43:21;2.10;99.90
52867;DHT22;38739;53.324;6.862;2024-03-08T02:45:48;2.00;99.90
52867;DHT22;38739;53.324;6.862;2024-03-08T02:48:14;2.00;99.90
52867;DHT22;38739;53.324;6.862;2024-03-08T02:50:40;2.00;99.90
52867;DHT22;38739;53.324;6.862;2024-03-08T02:53:08;2.00;99.90
52867;DHT22;38739;53.324;6.862;2024-03-08T02:55:35;1.90;99.90
52867;DHT22;38739;53.324;6.862;2024-03-08T02:58:02;1.90;99.90
52867;DHT22;38739;53.324;6.862;2024-03-08T03:00:29;1.90;99.90
52867;DHT22;38739;53.324;6.862;2024-03-08T03:02:59;1.90;99.90
52867;DHT22;38739;53.324;6.862;2024-03-08T03:05:25;1.90;99.90
52867;DHT22;38739;53.324;6.862;2024-03-08T03:07:51;1.80;99.90
52867;DHT22;38739;53.324;6.862;2024-03-08T03:10:17;1.80;99.90
52867;DHT22;38739;53.324;6.862;2024-03-08T03:12:44;1.80;99.90
52867;DHT22;38739;53.324;6.862;2024-03-08T03:15:12;1.80;99.90
52867;DHT22;38739;53.324;6.862;2024-03-08T03:17:39;1.80;99.90
52867;DHT22;38739;53.324;6.862;2024-03-08T03:20:09;1.90;99.90
52867;DHT22;38739;53.324;6.862;2024-03-08T03:22:38;1.90;99.90
52867;DHT22;38739;53.324;6.862;2024-03-08T03:25:04;1.80;99.90
52867;DHT22;38739;53.324;6.862;2024-03-08T03:27:32;1.80;99.90
52867;DHT22;38739;53.324;6.862;2024-03-08T03:29:58;1.80;99.90
52867;DHT22;38739;53.324;6.862;2024-03-08T03:32:24;1.80;99.90
52867;DHT22;38739;53.324;6.862;2024-03-08T03:34:50;1.80;99.90
52867;DHT22;38739;53.324;6.862;2024-03-08T03:37:19;1.70;99.90
52867;DHT22;38739;53.324;6.862;2024-03-08T03:39:45;1.70;99.90
52867;DHT22;38739;53.324;6.862;2024-03-08T03:42:15;1.80;99.90
52867;DHT22;38739;53.324;6.862;2024-03-08T03:44:45;1.70;99.90
52867;DHT22;38739;53.324;6.862;2024-03-08T03:47:11;1.80;99.90
52867;DHT22;38739;53.324;6.862;2024-03-08T03:49:36;1.70;99.90
52867;DHT22;38739;53.324;6.862;2024-03-08T03:52:02;1.70;99.90
52867;DHT22;38739;53.324;6.862;2024-03-08T03:54:30;1.70;99.90
52867;DHT22;38739;53.324;6.862;2024-03-08T03:56:56;1.70;99.90
52867;DHT22;38739;53.324;6.862;2024-03-08T03:59:22;1.70;99.90
52867;DHT22;38739;53.324;6.862;2024-03-08T04:01:47;1.60;99.90
52867;DHT22;38739;53.324;6.862;2024-03-08T04:04:15;1.60;99.90
52867;DHT22;38739;53.324;6.862;2024-03-08T04:06:41;1.60;99.90
52867;DHT22;38739;53.324;6.862;2024-03-08T04:09:07;1.60;99.90
52867;DHT22;38739;53.324;6.862;2024-03-08T04:11:33;1.60;99.90
52867;DHT22;38739;53.324;6.862;2024-03-08T04:13:59;1.60;99.90
52867;DHT22;38739;53.324;6.862;2024-03-08T04:16:24;1.50;99.90
52867;DHT22;38739;53.324;6.862;2024-03-08T04:18:52;1.50;99.90
52867;DHT22;38739;53.324;6.862;2024-03-08T04:21:17;1.50;99.90
52867;DHT22;38739;53.324;6.862;2024-03-08T04:23:45;1.50;99.90
52867;DHT22;38739;53.324;6.862;2024-03-08T04:26:11;1.50;99.90
52867;DHT22;38739;53.324;6.862;2024-03-08T04:28:37;1.50;99.90
52867;DHT22;38739;53.324;6.862;2024-03-08T04:31:03;1.50;99.90
52867;DHT22;38739;53.324;6.862;2024-03-08T04:33:29;1.40;99.90
52867;DHT22;38739;53.324;6.862;2024-03-08T04:35:55;1.40;99.90
52867;DHT22;38739;53.324;6.862;2024-03-08T04:38:21;1.50;99.90
52867;DHT22;38739;53.324;6.862;2024-03-08T04:40:47;1.50;99.90
52867;DHT22;38739;53.324;6.862;2024-03-08T04:43:13;1.50;99.90
52867;DHT22;38739;53.324;6.862;2024-03-08T04:45:40;1.50;99.90
52867;DHT22;38739;53.324;6.862;2024-03-08T04:48:07;1.50;99.90
52867;DHT22;38739;53.324;6.862;2024-03-08T04:50:34;1.40;99.90
52867;DHT22;38739;53.324;6.862;2024-03-08T04:52:59;1.40;99.90
52867;DHT22;38739;53.324;6.862;2024-03-08T04:55:25;1.40;99.90
52867;DHT22;38739;53.324;6.862;2024-03-08T04:57:51;1.40;99.90
52867;DHT22;38739;53.324;6.862;2024-03-08T05:00:17;1.40;99.90
52867;DHT22;38739;53.324;6.862;2024-03-08T05:02:43;1.40;99.90
52867;DHT22;38739;53.324;6.862;2024-03-08T05:05:09;1.40;99.90
52867;DHT22;38739;53.324;6.862;2024-03-08T05:07:38;1.30;99.90
52867;DHT22;38739;53.324;6.862;2024-03-08T05:10:05;1.30;99.90
52867;DHT22;38739;53.324;6.862;2024-03-08T05:12:35;1.30;99.90
52867;DHT22;38739;53.324;6.862;2024-03-08T05:15:00;1.30;99.90
52867;DHT22;38739;53.324;6.862;2024-03-08T05:17:26;1.30;99.90
52867;DHT22;38739;53.324;6.862;2024-03-08T05:19:52;1.30;99.90
52867;DHT22;38739;53.324;6.862;2024-03-08T05:22:19;1.30;99.90
52867;DHT22;38739;53.324;6.862;2024-03-08T05:24:44;1.30;99.90
52867;DHT22;38739;53.324;6.862;2024-03-08T05:27:10;1.30;99.90
52867;DHT22;38739;53.324;6.862;2024-03-08T05:29:36;1.30;99.90
52867;DHT22;38739;53.324;6.862;2024-03-08T05:32:03;1.30;99.90
52867;DHT22;38739;53.324;6.862;2024-03-08T05:34:29;1.30;99.90
52867;DHT22;38739;53.324;6.862;2024-03-08T05:36:55;1.30;99.90
52867;DHT22;38739;53.324;6.862;2024-03-08T05:39:21;1.20;99.90
52867;DHT22;38739;53.324;6.862;2024-03-08T05:41:47;1.20;99.90
52867;DHT22;38739;53.324;6.862;2024-03-08T05:44:13;1.20;99.90
52867;DHT22;38739;53.324;6.862;2024-03-08T05:46:40;1.20;99.90
52867;DHT22;38739;53.324;6.862;2024-03-08T05:49:06;1.20;99.90
52867;DHT22;38739;53.324;6.862;2024-03-08T05:51:36;1.20;99.90
52867;DHT22;38739;53.324;6.862;2024-03-08T05:54:07;1.20;99.90
52867;DHT22;38739;53.324;6.862;2024-03-08T05:56:35;1.20;99.90
52867;DHT22;38739;53.324;6.862;2024-03-08T05:59:02;1.20;99.90
52867;DHT22;38739;53.324;6.862;2024-03-08T06:01:28;1.20;99.90
52867;DHT22;38739;53.324;6.862;2024-03-08T06:03:55;1.20;99.90
52867;DHT22;38739;53.324;6.862;2024-03-08T06:06:25;1.20;99.90
52867;DHT22;38739;53.324;6.862;2024-03-08T06:08:52;1.20;99.90
52867;DHT22;38739;53.324;6.862;2024-03-08T06:11:19;1.20;99.90
52867;DHT22;38739;53.324;6.862;2024-03-08T06:13:45;1.20;99.90
52867;DHT22;38739;53.324;6.862;2024-03-08T06:16:12;1.20;99.90
52867;DHT22;38739;53.324;6.862;2024-03-08T06:18:38;1.20;99.90
52867;DHT22;38739;53.324;6.862;2024-03-08T06:21:05;1.20;99.90
52867;DHT22;38739;53.324;6.862;2024-03-08T06:23:34;1.20;99.90
52867;DHT22;38739;53.324;6.862;2024-03-08T06:26:04;1.20;99.90
52867;DHT22;38739;53.324;6.862;2024-03-08T06:28:30;1.20;99.90
52867;DHT22;38739;53.324;6.862;2024-03-08T06:31:01;1.20;99.90
52867;DHT22;38739;53.324;6.862;2024-03-08T06:33:28;1.20;99.90
52867;DHT22;38739;53.324;6.862;2024-03-08T06:35:54;1.20;99.90
52867;DHT22;38739;53.324;6.862;2024-03-08T06:38:25;1.20;99.90
52867;DHT22;38739;53.324;6.862;2024-03-08T06:40:52;1.20;99.90
52867;DHT22;38739;53.324;6.862;2024-03-08T06:43:18;1.30;99.90
52867;DHT22;38739;53.324;6.862;2024-03-08T06:45:47;1.30;99.90
52867;DHT22;38739;53.324;6.862;2024-03-08T06:48:19;1.30;99.90
52867;DHT22;38739;53.324;6.862;2024-03-08T06:50:46;1.30;99.90
52867;DHT22;38739;53.324;6.862;2024-03-08T06:53:12;1.30;99.90
52867;DHT22;38739;53.324;6.862;2024-03-08T06:55:40;1.30;99.90
52867;DHT22;38739;53.324;6.862;2024-03-08T06:58:06;1.30;99.90
52867;DHT22;38739;53.324;6.862;2024-03-08T07:00:36;1.40;99.90
52867;DHT22;38739;53.324;6.862;2024-03-08T07:03:02;1.40;99.90
52867;DHT22;38739;53.324;6.862;2024-03-08T07:05:29;1.50;99.90
52867;DHT22;38739;53.324;6.862;2024-03-08T07:07:55;1.50;99.90
52867;DHT22;38739;53.324;6.862;2024-03-08T07:10:24;1.60;99.90
52867;DHT22;38739;53.324;6.862;2024-03-08T07:12:51;1.60;99.90
52867;DHT22;38739;53.324;6.862;2024-03-08T07:15:17;1.60;99.90
52867;DHT22;38739;53.324;6.862;2024-03-08T07:17:45;1.60;99.90
52867;DHT22;38739;53.324;6.862;2024-03-08T07:20:11;1.70;99.90
52867;DHT22;38739;53.324;6.862;2024-03-08T07:22:39;1.70;99.90
52867;DHT22;38739;53.324;6.862;2024-03-08T07:25:08;1.70;99.90
52867;DHT22;38739;53.324;6.862;2024-03-08T07:27:51;1.80;99.90
52867;DHT22;38739;53.324;6.862;2024-03-08T07:30:17;1.80;99.90
52867;DHT22;38739;53.324;6.862;2024-03-08T07:33:01;1.90;99.90
52867;DHT22;38739;53.324;6.862;2024-03-08T07:35:28;2.00;99.90
52867;DHT22;38739;53.324;6.862;2024-03-08T07:37:54;2.00;99.90
52867;DHT22;38739;53.324;6.862;2024-03-08T07:40:23;2.10;99.90
52867;DHT22;38739;53.324;6.862;2024-03-08T07:42:49;2.30;99.90
52867;DHT22;38739;53.324;6.862;2024-03-08T07:45:16;2.40;99.90
52867;DHT22;38739;53.324;6.862;2024-03-08T07:47:42;2.50;99.90
52867;DHT22;38739;53.324;6.862;2024-03-08T07:50:08;2.60;99.90
52867;DHT22;38739;53.324;6.862;2024-03-08T07:52:35;2.80;99.90
52867;DHT22;38739;53.324;6.862;2024-03-08T07:55:04;3.00;99.90
52867;DHT22;38739;53.324;6.862;2024-03-08T07:57:31;3.10;99.90
52867;DHT22;38739;53.324;6.862;2024-03-08T07:59:57;3.20;99.90
52867;DHT22;38739;53.324;6.862;2024-03-08T08:02:23;3.40;99.90
52867;DHT22;38739;53.324;6.862;2024-03-08T08:04:49;3.50;99.90
52867;DHT22;38739;53.324;6.862;2024-03-08T08:07:15;3.60;99.90
52867;DHT22;38739;53.324;6.862;2024-03-08T08:09:41;3.80;99.90
52867;DHT22;38739;53.324;6.862;2024-03-08T08:12:11;3.90;99.90
52867;DHT22;38739;53.324;6.862;2024-03-08T08:14:40;4.10;99.90
52867;DHT22;38739;53.324;6.862;2024-03-08T08:17:06;4.20;99.90
52867;DHT22;38739;53.324;6.862;2024-03-08T08:19:34;4.40;99.90
52867;DHT22;38739;53.324;6.862;2024-03-08T08:22:03;4.50;99.90
52867;DHT22;38739;53.324;6.862;2024-03-08T08:24:29;4.70;99.90
52867;DHT22;38739;53.324;6.862;2024-03-08T08:26:56;4.90;99.90
52867;DHT22;38739;53.324;6.862;2024-03-08T08:29:22;5.10;99.90
52867;DHT22;38739;53.324;6.862;2024-03-08T08:31:48;5.20;99.90
52867;DHT22;38739;53.324;6.862;2024-03-08T08:34:16;5.30;99.90
52867;DHT22;38739;53.324;6.862;2024-03-08T08:36:44;5.50;99.90
52867;DHT22;38739;53.324;6.862;2024-03-08T08:39:10;5.80;99.90
52867;DHT22;38739;53.324;6.862;2024-03-08T08:41:39;5.90;99.90
52867;DHT22;38739;53.324;6.862;2024-03-08T08:44:07;6.10;99.90
52867;DHT22;38739;53.324;6.862;2024-03-08T08:46:36;6.20;99.90
52867;DHT22;38739;53.324;6.862;2024-03-08T08:49:05;6.40;99.90
52867;DHT22;38739;53.324;6.862;2024-03-08T08:51:40;6.70;99.90
52867;DHT22;38739;53.324;6.862;2024-03-08T08:54:05;6.80;99.90
52867;DHT22;38739;53.324;6.862;2024-03-08T08:56:35;6.80;99.90
52867;DHT22;38739;53.324;6.862;2024-03-08T08:59:00;6.90;99.90
52867;DHT22;38739;53.324;6.862;2024-03-08T09:01:26;7.10;99.90
52867;DHT22;38739;53.324;6.862;2024-03-08T09:03:52;7.00;99.90
52867;DHT22;38739;53.324;6.862;2024-03-08T09:06:19;7.10;99.90
52867;DHT22;38739;53.324;6.862;2024-03-08T09:08:45;7.10;99.90
52867;DHT22;38739;53.324;6.862;2024-03-08T09:11:11;7.30;99.90
52867;DHT22;38739;53.324;6.862;2024-03-08T09:13:37;7.70;99.90
52867;DHT22;38739;53.324;6.862;2024-03-08T09:16:03;8.00;99.90
52867;DHT22;38739;53.324;6.862;2024-03-08T09:18:31;8.00;99.90
52867;DHT22;38739;53.324;6.862;2024-03-08T09:20:58;8.20;99.90
52867;DHT22;38739;53.324;6.862;2024-03-08T09:23:25;8.20;99.90
52867;DHT22;38739;53.324;6.862;2024-03-08T09:25:52;8.40;99.90
52867;DHT22;38739;53.324;6.862;2024-03-08T09:28:17;8.50;99.90
52867;DHT22;38739;53.324;6.862;2024-03-08T09:30:43;8.50;99.90
52867;DHT22;38739;53.324;6.862;2024-03-08T09:33:10;8.60;99.90
52867;DHT22;38739;53.324;6.862;2024-03-08T09:35:37;8.30;99.90
52867;DHT22;38739;53.324;6.862;2024-03-08T09:38:02;8.40;99.90
52867;DHT22;38739;53.324;6.862;2024-03-08T09:40:30;8.20;99.90
52867;DHT22;38739;53.324;6.862;2024-03-08T09:42:55;8.60;99.90
52867;DHT22;38739;53.324;6.862;2024-03-08T09:45:23;8.70;99.90
52867;DHT22;38739;53.324;6.862;2024-03-08T09:47:50;8.90;99.90
52867;DHT22;38739;53.324;6.862;2024-03-08T09:50:16;9.20;99.90
52867;DHT22;38739;53.324;6.862;2024-03-08T09:52:44;9.50;99.90
52867;DHT22;38739;53.324;6.862;2024-03-08T09:55:11;9.80;99.90
52867;DHT22;38739;53.324;6.862;2024-03-08T09:57:38;10.20;99.70
52867;DHT22;38739;53.324;6.862;2024-03-08T10:00:05;10.40;96.90
52867;DHT22;38739;53.324;6.862;2024-03-08T10:02:47;10.30;96.40
52867;DHT22;38739;53.324;6.862;2024-03-08T10:05:14;11.00;97.40
52867;DHT22;38739;53.324;6.862;2024-03-08T10:07:40;11.10;94.60
52867;DHT22;38739;53.324;6.862;2024-03-08T10:10:06;11.20;95.50
52867;DHT22;38739;53.324;6.862;2024-03-08T10:12:34;11.40;93.90
52867;DHT22;38739;53.324;6.862;2024-03-08T10:15:00;11.20;93.00
52867;DHT22;38739;53.324;6.862;2024-03-08T10:17:26;11.00;93.90
52867;DHT22;38739;53.324;6.862;2024-03-08T10:19:57;11.50;94.50
52867;DHT22;38739;53.324;6.862;2024-03-08T10:22:25;11.70;93.20
52867;DHT22;38739;53.324;6.862;2024-03-08T10:24:51;11.50;92.00
52867;DHT22;38739;53.324;6.862;2024-03-08T10:27:17;12.00;92.60
52867;DHT22;38739;53.324;6.862;2024-03-08T10:29:47;12.00;92.10
52867;DHT22;38739;53.324;6.862;2024-03-08T10:32:13;12.00;91.50
52867;DHT22;38739;53.324;6.862;2024-03-08T10:34:39;11.70;91.20
52867;DHT22;38739;53.324;6.862;2024-03-08T10:37:05;11.90;91.10
52867;DHT22;38739;53.324;6.862;2024-03-08T10:39:37;12.20;90.90
52867;DHT22;38739;53.324;6.862;2024-03-08T10:42:04;12.30;90.40
52867;DHT22;38739;53.324;6.862;2024-03-08T10:47:13;12.50;90.20
52867;DHT22;38739;53.324;6.862;2024-03-08T10:50:17;12.90;88.90
52867;DHT22;38739;53.324;6.862;2024-03-08T10:52:49;12.90;86.90
52867;DHT22;38739;53.324;6.862;2024-03-08T10:55:16;13.30;90.00
52867;DHT22;38739;53.324;6.862;2024-03-08T10:57:43;13.80;89.40
52867;DHT22;38739;53.324;6.862;2024-03-08T11:00:10;13.60;86.10
52867;DHT22;38739;53.324;6.862;2024-03-08T11:02:37;14.10;86.30
52867;DHT22;38739;53.324;6.862;2024-03-08T11:05:03;14.40;82.80
52867;DHT22;38739;53.324;6.862;2024-03-08T11:07:34;14.20;82.60
52867;DHT22;38739;53.324;6.862;2024-03-08T11:10:04;14.40;83.50
52867;DHT22;38739;53.324;6.862;2024-03-08T11:12:41;14.40;81.10
52867;DHT22;38739;53.324;6.862;2024-03-08T11:15:12;14.60;79.20
52867;DHT22;38739;53.324;6.862;2024-03-08T11:20:18;14.50;77.80
52867;DHT22;38739;53.324;6.862;2024-03-08T11:22:50;14.70;80.00
52867;DHT22;38739;53.324;6.862;2024-03-08T11:25:39;15.10;78.40
52867;DHT22;38739;53.324;6.862;2024-03-08T11:28:24;15.40;76.70
52867;DHT22;38739;53.324;6.862;2024-03-08T11:33:30;15.60;75.20
52867;DHT22;38739;53.324;6.862;2024-03-08T11:36:07;15.40;75.10
52867;DHT22;38739;53.324;6.862;2024-03-08T11:38:43;15.40;74.20
52867;DHT22;38739;53.324;6.862;2024-03-08T11:41:10;16.10;74.90
52867;DHT22;38739;53.324;6.862;2024-03-08T11:43:40;16.40;74.00
52867;DHT22;38739;53.324;6.862;2024-03-08T11:46:10;16.70;75.20
52867;DHT22;38739;53.324;6.862;2024-03-08T11:48:39;16.30;71.40
52867;DHT22;38739;53.324;6.862;2024-03-08T11:51:08;16.40;73.10
52867;DHT22;38739;53.324;6.862;2024-03-08T11:53:33;16.70;71.60
52867;DHT22;38739;53.324;6.862;2024-03-08T11:56:09;16.40;71.20
52867;DHT22;38739;53.324;6.862;2024-03-08T11:58:35;16.90;69.90
52867;DHT22;38739;53.324;6.862;2024-03-08T12:01:08;17.40;71.40
52867;DHT22;38739;53.324;6.862;2024-03-08T12:03:42;17.40;69.60
52867;DHT22;38739;53.324;6.862;2024-03-08T12:06:09;17.30;68.20
52867;DHT22;38739;53.324;6.862;2024-03-08T12:08:38;17.60;70.60
52867;DHT22;38739;53.324;6.862;2024-03-08T12:11:04;17.70;67.10
52867;DHT22;38739;53.324;6.862;2024-03-08T12:13:34;17.50;67.50
52867;DHT22;38739;53.324;6.862;2024-03-08T12:16:02;17.60;67.20
52867;DHT22;38739;53.324;6.862;2024-03-08T12:18:37;18.00;68.50
52867;DHT22;38739;53.324;6.862;2024-03-08T12:21:11;18.20;65.60
52867;DHT22;38739;53.324;6.862;2024-03-08T12:23:38;18.10;65.10
52867;DHT22;38739;53.324;6.862;2024-03-08T12:26:32;18.30;66.80
52867;DHT22;38739;53.324;6.862;2024-03-08T12:29:19;19.20;64.90
52867;DHT22;38739;53.324;6.862;2024-03-08T12:32:00;19.50;63.10
52867;DHT22;38739;53.324;6.862;2024-03-08T12:34:26;19.50;61.40
52867;DHT22;38739;53.324;6.862;2024-03-08T12:36:54;19.80;62.50
52867;DHT22;38739;53.324;6.862;2024-03-08T12:39:21;20.00;62.90
52867;DHT22;38739;53.324;6.862;2024-03-08T12:41:56;20.60;61.20
52867;DHT22;38739;53.324;6.862;2024-03-08T12:44:28;20.80;61.00
52867;DHT22;38739;53.324;6.862;2024-03-08T12:46:54;21.40;61.30
52867;DHT22;38739;53.324;6.862;2024-03-08T12:49:20;21.40;61.00
52867;DHT22;38739;53.324;6.862;2024-03-08T12:51:49;21.00;58.10
52867;DHT22;38739;53.324;6.862;2024-03-08T12:54:15;20.60;57.50
52867;DHT22;38739;53.324;6.862;2024-03-08T12:56:40;20.40;59.10
52867;DHT22;38739;53.324;6.862;2024-03-08T12:59:07;20.60;58.20
52867;DHT22;38739;53.324;6.862;2024-03-08T13:01:34;20.20;58.30
52867;DHT22;38739;53.324;6.862;2024-03-08T13:04:03;20.40;59.30
52867;DHT22;38739;53.324;6.862;2024-03-08T13:06:29;20.30;59.40
52867;DHT22;38739;53.324;6.862;2024-03-08T13:08:57;20.70;59.00
52867;DHT22;38739;53.324;6.862;2024-03-08T13:11:24;21.00;58.60
52867;DHT22;38739;53.324;6.862;2024-03-08T13:13:53;20.60;58.00
52867;DHT22;38739;53.324;6.862;2024-03-08T13:16:19;21.20;58.10
52867;DHT22;38739;53.324;6.862;2024-03-08T13:18:46;21.30;56.20
52867;DHT22;38739;53.324;6.862;2024-03-08T13:21:15;20.70;56.10
52867;DHT22;38739;53.324;6.862;2024-03-08T13:23:44;20.40;56.20
52867;DHT22;38739;53.324;6.862;2024-03-08T13:26:15;20.20;57.00
52867;DHT22;38739;53.324;6.862;2024-03-08T13:28:49;20.10;57.10
52867;DHT22;38739;53.324;6.862;2024-03-08T13:31:22;20.10;59.30
52867;DHT22;38739;53.324;6.862;2024-03-08T13:33:48;20.10;57.50
52867;DHT22;38739;53.324;6.862;2024-03-08T13:36:14;20.10;57.20
52867;DHT22;38739;53.324;6.862;2024-03-08T13:38:47;20.20;57.40
52867;DHT22;38739;53.324;6.862;2024-03-08T13:41:19;20.20;56.80
52867;DHT22;38739;53.324;6.862;2024-03-08T13:43:48;20.50;57.50
52867;DHT22;38739;53.324;6.862;2024-03-08T13:46:17;20.40;56.00
52867;DHT22;38739;53.324;6.862;2024-03-08T13:48:43;20.60;56.70
52867;DHT22;38739;53.324;6.862;2024-03-08T13:51:09;20.80;57.00
52867;DHT22;38739;53.324;6.862;2024-03-08T13:53:40;20.80;56.80
52867;DHT22;38739;53.324;6.862;2024-03-08T13:56:06;20.50;56.60
52867;DHT22;38739;53.324;6.862;2024-03-08T13:58:33;20.60;57.50
52867;DHT22;38739;53.324;6.862;2024-03-08T14:01:00;20.50;56.80
52867;DHT22;38739;53.324;6.862;2024-03-08T14:03:28;19.80;56.60
52867;DHT22;38739;53.324;6.862;2024-03-08T14:05:54;19.50;57.80
52867;DHT22;38739;53.324;6.862;2024-03-08T14:08:21;19.10;58.40
52867;DHT22;38739;53.324;6.862;2024-03-08T14:10:47;18.80;58.40
52867;DHT22;38739;53.324;6.862;2024-03-08T14:13:14;18.70;58.60
52867;DHT22;38739;53.324;6.862;2024-03-08T14:15:44;18.40;58.40
52867;DHT22;38739;53.324;6.862;2024-03-08T14:18:11;18.10;59.90
52867;DHT22;38739;53.324;6.862;2024-03-08T14:20:39;17.20;60.10
52867;DHT22;38739;53.324;6.862;2024-03-08T14:23:04;16.10;61.80
52867;DHT22;38739;53.324;6.862;2024-03-08T14:25:33;15.30;63.70
52867;DHT22;38739;53.324;6.862;2024-03-08T14:27:59;14.30;64.90
52867;DHT22;38739;53.324;6.862;2024-03-08T14:30:33;13.70;66.80
52867;DHT22;38739;53.324;6.862;2024-03-08T14:33:04;13.30;68.30
52867;DHT22;38739;53.324;6.862;2024-03-08T14:35:31;12.80;68.60
52867;DHT22;38739;53.324;6.862;2024-03-08T14:37:57;12.40;70.30
52867;DHT22;38739;53.324;6.862;2024-03-08T14:40:24;12.10;71.30
52867;DHT22;38739;53.324;6.862;2024-03-08T14:42:51;11.80;72.70
52867;DHT22;38739;53.324;6.862;2024-03-08T14:45:17;11.70;72.90
52867;DHT22;38739;53.324;6.862;2024-03-08T14:47:48;11.50;73.00
52867;DHT22;38739;53.324;6.862;2024-03-08T14:50:18;11.20;73.40
52867;DHT22;38739;53.324;6.862;2024-03-08T14:52:44;11.10;74.00
52867;DHT22;38739;53.324;6.862;2024-03-08T14:55:14;10.90;74.50
52867;DHT22;38739;53.324;6.862;2024-03-08T14:57:43;10.80;75.00
52867;DHT22;38739;53.324;6.862;2024-03-08T15:00:11;10.70;75.80
52867;DHT22;38739;53.324;6.862;2024-03-08T15:02:44;10.50;75.80
52867;DHT22;38739;53.324;6.862;2024-03-08T15:05:10;10.40;75.80
52867;DHT22;38739;53.324;6.862;2024-03-08T15:07:40;10.40;76.00
52867;DHT22;38739;53.324;6.862;2024-03-08T15:10:07;10.30;76.20
52867;DHT22;38739;53.324;6.862;2024-03-08T15:12:39;10.30;76.70
52867;DHT22;38739;53.324;6.862;2024-03-08T15:15:07;10.30;78.10
52867;DHT22;38739;53.324;6.862;2024-03-08T15:17:36;10.50;78.50
52867;DHT22;38739;53.324;6.862;2024-03-08T15:20:06;10.90;78.40
52867;DHT22;38739;53.324;6.862;2024-03-08T15:22:43;11.60;77.50
52867;DHT22;38739;53.324;6.862;2024-03-08T15:25:12;12.40;75.50
52867;DHT22;38739;53.324;6.862;2024-03-08T15:27:43;12.70;73.80
52867;DHT22;38739;53.324;6.862;2024-03-08T15:30:08;12.30;74.10
52867;DHT22;38739;53.324;6.862;2024-03-08T15:32:48;11.70;74.60
52867;DHT22;38739;53.324;6.862;2024-03-08T15:35:16;11.20;75.70
52867;DHT22;38739;53.324;6.862;2024-03-08T15:37:45;10.80;77.20
52867;DHT22;38739;53.324;6.862;2024-03-08T15:40:12;10.40;78.50
52867;DHT22;38739;53.324;6.862;2024-03-08T15:42:55;10.20;79.20
52867;DHT22;38739;53.324;6.862;2024-03-08T15:45:21;10.00;79.60
52867;DHT22;38739;53.324;6.862;2024-03-08T15:47:49;9.90;80.70
52867;DHT22;38739;53.324;6.862;2024-03-08T15:50:15;9.60;80.60
52867;DHT22;38739;53.324;6.862;2024-03-08T15:52:44;9.50;81.60